Tiempo atmosférico en la estación meteorológica de El Campillo, Huelva (415 m.)



Fecha
DESCASC
Temp. máxima en grados centígrados (hora)
DESCASC
Temp. mínima en grados centígrados (hora)
DESCASC
Temp. media en grados centígrados
DESCASC
Racha de viento máxima en m/sg (hora)
DESCASC
Velocidad máxima media en intervalos de 10 minutos(hora)
DESCASC
Precipitaciones diarias en mm
DESCASC
Precipitaciones de 00:00 a 06:00 en mm
DESCASC
Precipitaciones de 06:00 a 12:00 en mm
DESCASC
Precipitaciones de 12:00 a 18:00 en mm
DESCASC
Precipitaciones de 18:00 a 24:00 en mm
DESCASC
18-02-2018 17.7 (14:50) 9.3 (05:00) 13.5 8.06 (14:30) 3.89 (01:50) 0 0 0 0 0
17-02-2018 18.3 (16:00) 8.3 (00:30) 13.3 6.67 (15:30) 3.61 (18:40) 0 0 0 0 0
16-02-2018 20.1 (16:40) 9.3 (23:59) 14.7 6.11 (19:20) 3.33 (18:50) 0 0 0 0 0
15-02-2018 18.8 (17:10) 6.7 (00:00) 12.7 5.28 (15:00) 2.78 (23:30) 0 0 0 0 0
14-02-2018 13.8 (14:10) 3.6 (00:00) 8.7 6.94 (14:10) 3.61 (14:10) 0 0 0 0 0
13-02-2018 12.9 (15:40) 1.6 (00:00) 7.2 6.39 (14:50) 3.61 (14:40) 0 0 0 0 0
12-02-2018 13.4 (15:00) 4.7 (00:00) 9 10.28 (16:20) 6.67 (16:30) 1.2 0 1 0.2 0
11-02-2018 17.7 (16:00) 4.4 (00:00) 11.1 10.56 (17:50) 6.67 (17:50) 0 0 0 0 0
10-02-2018 14 (14:40) 2.8 (00:00) 8.4 8.06 (15:20) 5.56 (15:20) 0 0 0 0 0
09-02-2018 9.9 (16:40) 0.9 (00:00) 5.4 5.83 (22:10) 3.89 (22:10) 0 0 0 0 0
08-02-2018 10.3 (15:30) 1.5 (00:00) 5.9 10.28 (05:20) 5.83 (04:40) 0 0 0 0 0
07-02-2018 10.3 (15:30) 0 (00:00) 5.2 10.28 (18:20) 5.56 (12:20) 0 0 0 0 0
06-02-2018 10.5 (16:10) 0.7 (00:00) 5.6 10.56 (02:20) 7.22 (02:00) 0 0 0 0 0
05-02-2018 10.5 (15:10) 0.3 (00:00) 5.4 9.17 (17:40) 6.11 (16:50) 0 0 0 0 0
04-02-2018 9.6 (15:30) 1.9 (00:00) 5.8 11.39 (17:20) 7.78 (17:30) 0 0 0 0 0
03-02-2018 12.5 (17:00) 1.9 (00:00) 7.2 8.61 (14:40) 5.28 (14:30) 0 0 0 0 0
02-02-2018 10.7 (15:30) 2.5 (00:00) 6.6 12.22 (00:20) 8.33 (00:20) 0 0 0 0 0
01-02-2018 12.1 (16:40) 6.2 (00:00) 9.2 13.61 (23:50) 8.89 (23:50) 0 0 0 0 0
31-01-2018 17.9 (17:00) 8.9 (00:00) 13.4 7.22 (06:00) 3.89 (05:50) 0 0 0 0 0
30-01-2018 16 (14:50) 9.2 (00:00) 12.6 9.17 (12:10) 4.72 (11:50) 0 0 0 0 0
29-01-2018 16.2 (16:00) 8.5 (00:00) 12.4 12.22 (10:40) 6.39 (10:40) 0 0 0 0 0
28-01-2018 13.6 (16:10) 5 (00:00) 9.3 14.44 (12:40) 8.89 (11:50) 0 0 0 0 0
27-01-2018 12.1 (14:10) 4.4 (00:00) 8.3 11.11 (14:50) 8.06 (15:00) 0 0 0 0 0
26-01-2018 11.4 (15:50) 3.7 (00:00) 7.5 13.06 (11:40) 8.89 (11:20) 0 0 0 0 0
25-01-2018 11 (13:10) 5.5 (00:00) 8.3 12.5 (23:00) 8.61 (22:40) 1.6 0 0 1.6 0
24-01-2018 17.3 (15:50) 7.9 (00:00) 12.6 4.17 (13:50) 2.22 (05:20) 0 0 0 0 0
23-01-2018 19.5 (15:40) 8.1 (00:00) 13.8 4.44 (15:50) 2.22 (13:10) 0 0 0 0 0
22-01-2018 18.2 (14:50) 8 (00:00) 13.1 6.39 (20:30) 4.72 (20:30) 0 0 0 0 0

Gráficas

Temp. máximas Temp. mínimas Temp. medias Precipitaciones Rachas de viento máximas Velocidades máximas media en intervalos de 10 minutos

Datos horarios

Fecha y hora oficial Temperatura (ºC) Velocidad del viento (km/h) Dirección del viento Racha (km/h) Dirección de racha Precipitación (mm) Presión (hPa) Tendencia (hPa) Humedad (%)
2018-02-20 23:00:00 11.9 16 Norte 23 Norte 0 -- -- 56
2018-02-20 22:00:00 12.1 15 Norte 17 Norte 0 -- -- 54
2018-02-20 21:00:00 12.3 10 Norte 16 Norte 0 -- -- 55
2018-02-20 20:00:00 13.9 12 Norte 15 Norte 0 -- -- 50
2018-02-20 19:00:00 15.8 9 Norte 18 Norte 0 -- -- 44
2018-02-20 18:00:00 18.1 9 Norte 18 Nordeste 0 -- -- 40
2018-02-20 17:00:00 18.6 9 Nordeste 26 Norte 0 -- -- 39
2018-02-20 16:00:00 18.8 8 Norte 31 Sudoeste 0 -- -- 41
2018-02-20 15:00:00 18.6 10 Norte 23 Norte 0 -- -- 39
2018-02-20 14:00:00 17.8 10 Nordeste 19 Norte 0 -- -- 40
2018-02-20 13:00:00 17 9 Nordeste 20 Este 0 -- -- 44
2018-02-20 12:00:00 16.4 9 Este 21 Este 0 -- -- 44
2018-02-20 11:00:00 15.9 5 Este 13 Este 0 -- -- 47
2018-02-20 10:00:00 13.5 6 Nordeste 14 Nordeste 0 -- -- 55
2018-02-20 09:00:00 10.5 8 Nordeste 13 Nordeste 0 -- -- 59
2018-02-20 08:00:00 9.9 6 Nordeste 13 Nordeste 0 -- -- 60
2018-02-20 07:00:00 10 10 Nordeste 14 Nordeste 0 -- -- 60
2018-02-20 06:00:00 10.2 9 Nordeste 15 Nordeste 0 -- -- 59
2018-02-20 05:00:00 9.8 10 Nordeste 14 Nordeste 0 -- -- 59
2018-02-20 04:00:00 8.4 4 Norte 12 Norte 0 -- -- 65
2018-02-20 03:00:00 9.4 9 Norte 14 Nordeste 0 -- -- 60
2018-02-20 02:00:00 10.1 10 Norte 18 Nordeste 0 -- -- 58
2018-02-20 01:00:00 10.8 10 Nordeste 16 Norte 0 -- -- 56
2018-02-20 00:00:00 10.3 11 Norte 19 Nordeste 0 -- -- 58
2018-02-19 23:00:00 11 11 Nordeste 20 Nordeste 0 -- -- 56
2018-02-19 22:00:00 11.3 12 Nordeste 19 Norte 0 -- -- 55
2018-02-19 21:00:00 11.8 14 Norte 19 Nordeste 0 -- -- 53
2018-02-19 20:00:00 12 10 Norte 17 Norte 0 -- -- 52
2018-02-19 19:00:00 13.8 12 Nordeste 22 Nordeste 0 -- -- 47
2018-02-19 18:00:00 15.1 14 Norte 22 Norte 0 -- -- 44
2018-02-19 17:00:00 15.7 13 Norte 26 Norte 0 -- -- 45
2018-02-19 16:00:00 16.1 17 Norte 25 Nordeste 0 -- -- 41
2018-02-19 15:00:00 16.4 15 Norte 26 Nordeste 0 -- -- 41
2018-02-19 14:00:00 16.5 14 Nordeste 28 Nordeste 0 -- -- 41
2018-02-19 13:00:00 15.4 15 Nordeste 25 Nordeste 0 -- -- 45
2018-02-19 12:00:00 13.6 15 Norte 21 Norte 0 -- -- 50
2018-02-19 11:00:00 12.3 13 Nordeste 23 Nordeste 0 -- -- 51
2018-02-19 10:00:00 10.8 8 Norte 17 Norte 0 -- -- 56
2018-02-19 09:00:00 8.6 3 Norte 12 Nordeste 0 -- -- 54
2018-02-19 08:00:00 8.8 6 Nordeste 11 Nordeste 0 -- -- 49
2018-02-19 07:00:00 8.7 5 Nordeste 13 Nordeste 0 -- -- 45
2018-02-19 06:00:00 9.9 9 Nordeste 16 Nordeste 0 -- -- 39
2018-02-19 05:00:00 10.1 8 Nordeste 15 Nordeste 0 -- -- 39
2018-02-19 04:00:00 10.5 6 Este 16 Nordeste 0 -- -- 39
2018-02-19 03:00:00 10.2 8 Nordeste 13 Nordeste 0 -- -- 39
2018-02-19 02:00:00 10.1 7 Nordeste 10 Nordeste 0 -- -- 43
2018-02-19 01:00:00 10.5 8 Nordeste 17 Nordeste 0 -- -- 48
2018-02-19 00:00:00 10.9 10 Nordeste 18 Nordeste 0 -- -- 50
2018-02-18 23:00:00 11.6 8 Nordeste 18 Nordeste 0 -- -- 53
2018-02-18 22:00:00 13.2 7 Nordeste 17 Nordeste 0 -- -- 54
2018-02-18 21:00:00 12.2 2 Sur 5 Sur 0 -- -- 74
2018-02-18 20:00:00 13.6 3 Sur 10 Sur 0 -- -- 68
2018-02-18 19:00:00 15 5 Sur 18 Sudoeste 0 -- -- 63
2018-02-18 18:00:00 15.9 4 Sudeste 11 Este 0 -- -- 54
2018-02-18 17:00:00 16.5 2 Este 9 Este 0 -- -- 50
2018-02-18 16:00:00 17 4 Nordeste 15 Sudoeste 0 -- -- 50
2018-02-18 15:00:00 17.3 7 Sudeste 29 Sudeste 0 -- -- 49
2018-02-18 14:00:00 17 6 Sur 19 Este 0 -- -- 52
2018-02-18 13:00:00 16.1 8 Nordeste 18 Este 0 -- -- 57
2018-02-18 12:00:00 15.3 7 Este 22 Este 0 -- -- 59
2018-02-18 11:00:00 14.3 9 Este 21 Este 0 -- -- 61
2018-02-18 10:00:00 12.1 8 Este 17 Este 0 -- -- 69
2018-02-18 09:00:00 10.3 5 Este 10 Este 0 -- -- 74
2018-02-18 08:00:00 10.7 8 Este 12 Nordeste 0 -- -- 71
2018-02-18 07:00:00 10.5 9 Este 11 Nordeste 0 -- -- 73
2018-02-18 06:00:00 9.7 8 Nordeste 11 Nordeste 0 -- -- 78
2018-02-18 05:00:00 9.3 6 Norte 14 Nordeste 0 -- -- 80
2018-02-18 04:00:00 10.1 9 Nordeste 17 Norte 0 -- -- 78
2018-02-18 03:00:00 10.3 10 Nordeste 18 Nordeste 0 -- -- 77
2018-02-18 02:00:00 10.9 12 Nordeste 18 Norte 0 -- -- 74
2018-02-18 01:00:00 11 12 Nordeste 15 Nordeste 0 -- -- 69
2018-02-18 00:00:00 10.5 11 Norte 14 Norte 0 -- -- 62
2018-02-17 23:00:00 11.4 8 Nordeste 15 Nordeste 0 -- -- 62
2018-02-17 22:00:00 11.8 8 Norte 13 Norte 0 -- -- 64
2018-02-17 21:00:00 12.1 6 Norte 15 Norte 0 -- -- 68
2018-02-17 20:00:00 12.2 8 Norte 14 Noroeste 0 -- -- 69
2018-02-17 19:00:00 14.3 4 Nordeste 18 Sur 0 -- -- 63
2018-02-17 18:00:00 16.6 9 Sudoeste 18 Oeste 0 -- -- 54
2018-02-17 17:00:00 17.6 10 Sudoeste 22 Sudoeste 0 -- -- 52
2018-02-17 16:00:00 18.3 9 Sudoeste 24 Norte 0 -- -- 50
2018-02-17 15:00:00 16.8 2 Oeste 12 Oeste 0 -- -- 55
2018-02-17 14:00:00 17.2 4 Oeste 15 Sudoeste 0 -- -- 56
2018-02-17 13:00:00 15.8 8 Sur 15 Sur 0 -- -- 58
2018-02-17 12:00:00 14.2 6 Sudeste 14 Sur 0 -- -- 64
2018-02-17 11:00:00 13.6 6 Sur 12 Sur 0 -- -- 66
2018-02-17 10:00:00 11.5 4 Sur 8 Sur 0 -- -- 70
2018-02-17 09:00:00 9.3 4 Sur 8 Sudeste 0 -- -- 76
2018-02-17 08:00:00 9.1 4 Sudeste 6 Sudeste 0 -- -- 74
2018-02-17 07:00:00 9.2 0 Calma 4 Nordeste 0 -- -- 73
2018-02-17 06:00:00 10.3 3 Nordeste 6 Nordeste 0 -- -- 69
2018-02-17 05:00:00 10.5 3 Nordeste 7 Nordeste 0 -- -- 71
2018-02-17 04:00:00 9.8 8 Nordeste 10 Nordeste 0 -- -- 75
2018-02-17 03:00:00 9 5 Norte 8 Norte 0 -- -- 82
2018-02-17 02:00:00 8.7 6 Norte 8 Norte 0 -- -- 84
2018-02-17 01:00:00 8.5 4 Norte 8 Noroeste 0 -- -- 86
2018-02-17 00:00:00 9.3 6 Noroeste 8 Noroeste 0 -- -- 82
2018-02-16 23:00:00 10.2 3 Noroeste 8 Oeste 0 -- -- 78
2018-02-16 22:00:00 11.2 4 Noroeste 10 Oeste 0 -- -- 74
2018-02-16 21:00:00 12.2 3 Noroeste 8 Oeste 0 -- -- 70
2018-02-16 20:00:00 13.4 5 Sudoeste 22 Sur 0 -- -- 66
2018-02-16 19:00:00 16.2 10 Sudoeste 19 Sudoeste 0 -- -- 59
2018-02-16 18:00:00 19.7 7 Sudoeste 22 Sudoeste 0 -- -- 41
2018-02-16 17:00:00 20 6 Oeste 19 Sudoeste 0 -- -- 42
2018-02-16 16:00:00 19.9 7 Oeste 22 Sudoeste 0 -- -- 41
2018-02-16 15:00:00 19.6 5 Sudoeste 19 Oeste 0 -- -- 47
2018-02-16 14:00:00 18.8 9 Sudoeste 16 Sudoeste 0 -- -- 51
2018-02-16 13:00:00 17.8 8 Oeste 14 Oeste 0 -- -- 55
2018-02-16 12:00:00 17.2 5 Sudoeste 12 Sudoeste 0 -- -- 59
2018-02-16 11:00:00 15.7 7 Sur 12 Sur 0 -- -- 63
2018-02-16 10:00:00 13 3 Nordeste 7 Este 0 -- -- 74
2018-02-16 09:00:00 9.7 4 Este 8 Este 0 -- -- 86
2018-02-16 08:00:00 11.1 3 Este 7 Sudeste 0 -- -- 76
2018-02-16 07:00:00 11.9 5 Este 12 Este 0 -- -- 75
2018-02-16 06:00:00 11.8 8 Este 9 Este 0 -- -- 75
2018-02-16 05:00:00 11.8 7 Este 10 Este 0 -- -- 76
2018-02-16 04:00:00 11.5 8 Este 12 Este 0 -- -- 77
2018-02-16 03:00:00 11.6 8 Este 14 Este 0 -- -- 77
2018-02-16 02:00:00 11.5 10 Este 14 Este 0 -- -- 77
2018-02-16 01:00:00 11.8 9 Este 12 Este 0 -- -- 74
2018-02-16 00:00:00 12.2 10 Este 13 Este 0 -- -- 73
2018-02-15 23:00:00 12.8 8 Este 10 Este 0 -- -- 70
2018-02-15 22:00:00 13 8 Este 12 Este 0 -- -- 69
2018-02-15 21:00:00 13.2 3 Sur 7 Sudeste 0 -- -- 66
2018-02-15 20:00:00 13.5 0 Calma 5 Oeste 0 -- -- 65
2018-02-15 19:00:00 17.1 3 Oeste 9 Oeste 0 -- -- 54
2018-02-15 18:00:00 18.4 4 Oeste 14 Oeste 0 -- -- 52
2018-02-15 17:00:00 18.7 6 Oeste 15 Noroeste 0 -- -- 51
2018-02-15 16:00:00 18.5 7 Oeste 15 Noroeste 0 -- -- 53
2018-02-15 15:00:00 17.5 3 Nordeste 19 Oeste 0 -- -- 53
2018-02-15 14:00:00 17.2 6 Sur 14 Sur 0 -- -- 54
2018-02-15 13:00:00 15.6 3 Oeste 17 Este 0 -- -- 58
2018-02-15 12:00:00 14.8 6 Este 16 Sudeste 0 -- -- 63
2018-02-15 11:00:00 13.1 7 Nordeste 14 Este 0 -- -- 71
2018-02-15 10:00:00 11.3 4 Nordeste 10 Nordeste 0 -- -- 79
2018-02-15 09:00:00 8.4 7 Nordeste 9 Nordeste 0 -- -- 86
2018-02-15 08:00:00 7.9 5 Nordeste 9 Nordeste 0 -- -- 87
2018-02-15 07:00:00 7.8 8 Nordeste 10 Nordeste 0 -- -- 89
2018-02-15 06:00:00 6.9 4 Nordeste 6 Norte 0 -- -- 93
2018-02-15 05:00:00 7 2 Norte 6 Norte 0 -- -- 91
2018-02-15 04:00:00 7.3 3 Norte 9 Norte 0 -- -- 92
2018-02-15 03:00:00 7.1 6 Norte 9 Norte 0 -- -- 93
2018-02-15 02:00:00 7.6 3 Norte 5 Norte 0 -- -- 93
2018-02-15 01:00:00 7.7 3 Norte 6 Nordeste 0 -- -- 91
2018-02-15 00:00:00 7.6 2 Oeste 3 Oeste 0 -- -- 92
2018-02-14 23:00:00 7.7 0 Calma 3 Noroeste 0 -- -- 92
2018-02-14 22:00:00 7.9 2 Oeste 9 Oeste 0 -- -- 89
2018-02-14 21:00:00 8.7 2 Noroeste 10 Oeste 0 -- -- 85
2018-02-14 20:00:00 10.1 4 Oeste 10 Oeste 0 -- -- 76
2018-02-14 19:00:00 11.2 5 Oeste 16 Oeste 0 -- -- 72
2018-02-14 18:00:00 12.3 5 Oeste 12 Oeste 0 -- -- 66
2018-02-14 17:00:00 12.3 8 Oeste 16 Oeste 0 -- -- 65
2018-02-14 16:00:00 12.4 7 Noroeste 17 Oeste 0 -- -- 67
2018-02-14 15:00:00 12.7 5 Oeste 25 Sudoeste 0 -- -- 62
2018-02-14 14:00:00 13.4 9 Oeste 20 Oeste 0 -- -- 58
2018-02-14 13:00:00 12.1 8 Oeste 16 Oeste 0 -- -- 59
2018-02-14 12:00:00 10.4 3 Sudoeste 9 Sur 0 -- -- 76
2018-02-14 11:00:00 8.8 0 Calma 4 Norte 0 -- -- 81
2018-02-14 10:00:00 7.6 3 Nordeste 5 Norte 0 -- -- 88
2018-02-14 09:00:00 5.2 3 Norte 5 Norte 0 -- -- 90
2018-02-14 08:00:00 4.3 3 Norte 5 Norte 0 -- -- 91
2018-02-14 07:00:00 4.4 0 Calma 5 Norte 0 -- -- 88
2018-02-14 06:00:00 3.6 5 Norte 8 Norte 0 -- -- 87
2018-02-14 05:00:00 3.9 4 Norte 7 Noroeste 0 -- -- 84
2018-02-14 04:00:00 4.9 2 Norte 3 Norte 0 -- -- 81
2018-02-14 03:00:00 4.7 0 Calma 4 Oeste 0 -- -- 79
2018-02-14 02:00:00 5.4 2 Norte 4 Norte 0 -- -- 77
2018-02-14 01:00:00 5.2 0 Calma 5 Oeste 0 -- -- 76
2018-02-14 00:00:00 5.6 5 Oeste 7 Oeste 0 -- -- 74
2018-02-13 23:00:00 6.4 2 Norte 6 Norte 0 -- -- 71
2018-02-13 22:00:00 6.4 4 Norte 9 Norte 0 -- -- 71
2018-02-13 21:00:00 6.4 8 Norte 11 Norte 0 -- -- 69
2018-02-13 20:00:00 6.9 7 Norte 13 Noroeste 0 -- -- 66
2018-02-13 19:00:00 9.5 7 Noroeste 22 Noroeste 0 -- -- 56
2018-02-13 18:00:00 11.6 9 Oeste 21 Noroeste 0 -- -- 54
2018-02-13 17:00:00 12.5 11 Noroeste 21 Oeste 0 -- -- 50
2018-02-13 16:00:00 12.8 10 Noroeste 22 Noroeste 0 -- -- 46
2018-02-13 15:00:00 12.2 8 Noroeste 23 Noroeste 0 -- -- 46
2018-02-13 14:00:00 11.2 7 Noroeste 18 Noroeste 0 -- -- 49
2018-02-13 13:00:00 10 9 Oeste 19 Noroeste 0 -- -- 48
2018-02-13 12:00:00 8.9 11 Norte 18 Norte 0 -- -- 51
2018-02-13 11:00:00 7.8 4 Norte 8 Norte 0 -- -- 59
2018-02-13 10:00:00 4.9 8 Norte 12 Norte 0 -- -- 78
2018-02-13 09:00:00 2.1 6 Norte 11 Norte 0 -- -- 85
2018-02-13 08:00:00 1.8 7 Norte 15 Norte 0 -- -- 86
2018-02-13 07:00:00 2.4 12 Norte 15 Norte 0 -- -- 83
2018-02-13 06:00:00 2.8 8 Norte 12 Norte 0 -- -- 82
2018-02-13 05:00:00 2.6 6 Norte 13 Noroeste 0 -- -- 82
2018-02-13 04:00:00 3 6 Norte 10 Norte 0 -- -- 79
2018-02-13 03:00:00 3.7 5 Norte 8 Norte 0 -- -- 76
2018-02-13 02:00:00 3.8 6 Norte 14 Norte 0 -- -- 74
2018-02-13 01:00:00 4.1 10 Norte 13 Norte 0 -- -- 70
2018-02-13 00:00:00 4.7 6 Norte 18 Norte 0 -- -- 64
2018-02-12 23:00:00 5.2 10 Norte 16 Norte 0 -- -- 62
2018-02-12 22:00:00 5.9 6 Norte 11 Norte 0 -- -- 60
2018-02-12 21:00:00 6.8 8 Norte 15 Noroeste 0 -- -- 55
2018-02-12 20:00:00 7.9 4 Norte 22 Norte 0 -- -- 54
2018-02-12 19:00:00 10.4 18 Norte 26 Norte 0 -- -- 44
2018-02-12 18:00:00 12 16 Noroeste 31 Noroeste 0 -- -- 47
2018-02-12 17:00:00 12.9 17 Noroeste 37 Norte 0 -- -- 48
2018-02-12 16:00:00 13.1 24 Norte 35 Noroeste 0.2 -- -- 51
2018-02-12 15:00:00 13.4 18 Noroeste 34 Noroeste 0 -- -- 51
2018-02-12 14:00:00 11.9 19 Noroeste 33 Norte 0 -- -- 53
2018-02-12 13:00:00 11.2 19 Noroeste 34 Noroeste 0 -- -- 62
2018-02-12 12:00:00 10.7 14 Noroeste 27 Noroeste 0 -- -- 80
2018-02-12 11:00:00 9.7 8 Oeste 20 Oeste 0 -- -- 97
2018-02-12 10:00:00 9.5 6 Oeste 17 Oeste 0.6 -- -- 97
2018-02-12 09:00:00 9.1 5 Oeste 14 Oeste 0.4 -- -- 96
2018-02-12 08:00:00 9 7 Oeste 18 Noroeste 0 -- -- 96
2018-02-12 07:00:00 8.9 11 Noroeste 22 Noroeste 0 -- -- 95
2018-02-12 06:00:00 9.1 7 Noroeste 20 Noroeste 0 -- -- 93
2018-02-12 05:00:00 9.5 13 Noroeste 24 Noroeste 0 -- -- 89
2018-02-12 04:00:00 9.8 14 Noroeste 23 Oeste 0 -- -- 90
2018-02-12 03:00:00 9.8 18 Noroeste 31 Noroeste 0 -- -- 91
2018-02-12 02:00:00 9.8 12 Noroeste 20 Noroeste 0 -- -- 94
2018-02-12 01:00:00 10 11 Noroeste 21 Noroeste 0 -- -- 93
2018-02-12 00:00:00 10.6 15 Noroeste 24 Noroeste 0 -- -- 92
2018-02-11 23:00:00 10.5 18 Noroeste 25 Noroeste 0 -- -- 92
2018-02-11 22:00:00 10.7 15 Noroeste 21 Noroeste 0 -- -- 89
2018-02-11 21:00:00 11.3 9 Noroeste 22 Noroeste 0 -- -- 85
2018-02-11 20:00:00 12.1 15 Noroeste 22 Noroeste 0 -- -- 82
2018-02-11 19:00:00 12.1 17 Noroeste 33 Noroeste 0 -- -- 82
2018-02-11 18:00:00 12.4 22 Noroeste 38 Norte 0 -- -- 79
2018-02-11 17:00:00 14.8 14 Noroeste 27 Noroeste 0 -- -- 67
2018-02-11 16:00:00 17.7 11 Oeste 24 Oeste 0 -- -- 57
2018-02-11 15:00:00 16.2 9 Noroeste 22 Oeste 0 -- -- 57
2018-02-11 14:00:00 15.2 6 Sudoeste 16 Sudoeste 0 -- -- 54
2018-02-11 13:00:00 14.1 9 Sudoeste 16 Sur 0 -- -- 54
2018-02-11 12:00:00 13 6 Sudoeste 17 Sur 0 -- -- 53
2018-02-11 11:00:00 11.6 8 Sur 16 Sur 0 -- -- 54
2018-02-11 10:00:00 9.5 4 Sur 5 Sur 0 -- -- 57
2018-02-11 09:00:00 5.5 2 Norte 5 Noroeste 0 -- -- 69
2018-02-11 08:00:00 4.9 0 Calma 4 Noroeste 0 -- -- 70
2018-02-11 07:00:00 5.1 0 Calma 4 Norte 0 -- -- 68
2018-02-11 06:00:00 5 2 Norte 3 Norte 0 -- -- 69
2018-02-11 05:00:00 4.5 3 Norte 6 Norte 0 -- -- 70
2018-02-11 04:00:00 5 0 Calma 5 Nordeste 0 -- -- 67
2018-02-11 03:00:00 4.7 0 Calma 7 Norte 0 -- -- 70
2018-02-11 02:00:00 4.6 5 Norte 10 Norte 0 -- -- 71
2018-02-11 01:00:00 5.5 9 Norte 11 Norte 0 -- -- 67
2018-02-11 00:00:00 6.3 0 Calma 6 Noroeste 0 -- -- 62
2018-02-10 23:00:00 7.2 2 Norte 8 Oeste 0 -- -- 57
2018-02-10 22:00:00 7.4 4 Sur 8 Sudoeste 0 -- -- 56
2018-02-10 21:00:00 7.9 6 Norte 16 Norte 0 -- -- 55
2018-02-10 20:00:00 8.9 10 Norte 18 Norte 0 -- -- 53
2018-02-10 19:00:00 10.5 10 Norte 21 Norte 0 -- -- 49
2018-02-10 18:00:00 12.6 13 Norte 26 Norte 0 -- -- 40
2018-02-10 17:00:00 13.4 18 Norte 26 Nordeste 0 -- -- 42
2018-02-10 16:00:00 13.6 14 Nordeste 29 Norte 0 -- -- 44
2018-02-10 15:00:00 13.7 19 Norte 28 Norte 0 -- -- 43
2018-02-10 14:00:00 13.5 10 Norte 25 Norte 0 -- -- 44
2018-02-10 13:00:00 12.9 13 Norte 23 Norte 0 -- -- 47
2018-02-10 12:00:00 11.7 14 Norte 22 Norte 0 -- -- 54
2018-02-10 11:00:00 10.5 9 Norte 14 Norte 0 -- -- 61
2018-02-10 10:00:00 6.9 9 Norte 19 Norte 0 -- -- 83
2018-02-10 09:00:00 4.7 11 Norte 18 Nordeste 0 -- -- 88
2018-02-10 08:00:00 5.1 12 Nordeste 17 Norte 0 -- -- 87
2018-02-10 07:00:00 4.5 11 Norte 19 Norte 0 -- -- 91
2018-02-10 06:00:00 3.6 12 Norte 16 Norte 0 -- -- 96
2018-02-10 05:00:00 3 0 Calma 6 Noroeste 0 -- -- 96
2018-02-10 04:00:00 2.9 2 Norte 8 Norte 0 -- -- 95
2018-02-10 03:00:00 2.9 5 Norte 11 Norte 0 -- -- 94
2018-02-10 02:00:00 3.4 5 Norte 13 Norte 0 -- -- 93
2018-02-10 01:00:00 4.1 5 Norte 10 Norte 0 -- -- 89
2018-02-10 00:00:00 5.1 2 Noroeste 5 Norte 0 -- -- 86
2018-02-09 23:00:00 6 5 Norte 21 Nordeste 0 -- -- 82
2018-02-09 22:00:00 7.1 12 Norte 19 Nordeste 0 -- -- 81
2018-02-09 21:00:00 7.2 10 Norte 14 Norte 0 -- -- 82
2018-02-09 20:00:00 7.5 6 Noroeste 13 Noroeste 0 -- -- 85
2018-02-09 19:00:00 7.8 5 Oeste 16 Oeste 0 -- -- 83
2018-02-09 18:00:00 8.7 6 Oeste 15 Noroeste 0 -- -- 75
2018-02-09 17:00:00 9.7 5 Oeste 17 Sudoeste 0 -- -- 69
2018-02-09 16:00:00 9.4 5 Oeste 11 Sudoeste 0 -- -- 65
2018-02-09 15:00:00 9 3 Oeste 11 Sudoeste 0 -- -- 61
2018-02-09 14:00:00 8.3 4 Oeste 12 Sur 0 -- -- 68
2018-02-09 13:00:00 8 6 Sudoeste 16 Oeste 0 -- -- 59
2018-02-09 12:00:00 7.7 4 Oeste 7 Sudoeste 0 -- -- 53
2018-02-09 11:00:00 7.2 3 Sur 5 Sudoeste 0 -- -- 48
2018-02-09 10:00:00 4.8 0 Calma 4 Nordeste 0 -- -- 53
2018-02-09 09:00:00 3 2 Nordeste 8 Norte 0 -- -- 55
2018-02-09 08:00:00 2.3 3 Norte 6 Norte 0 -- -- 56
2018-02-09 07:00:00 2.9 3 Norte 5 Norte 0 -- -- 55
2018-02-09 06:00:00 2.7 2 Norte 5 Nordeste 0 -- -- 53
2018-02-09 05:00:00 2.3 4 Norte 8 Norte 0 -- -- 56
2018-02-09 04:00:00 1.2 5 Norte 9 Norte 0 -- -- 58
2018-02-09 03:00:00 1.1 5 Norte 15 Norte 0 -- -- 59
2018-02-09 02:00:00 1.2 9 Norte 10 Norte 0 -- -- 59
2018-02-09 01:00:00 1.2 2 Norte 9 Norte 0 -- -- 58
2018-02-09 00:00:00 2 7 Norte 13 Norte 0 -- -- 55
2018-02-08 23:00:00 2.5 11 Norte 16 Norte 0 -- -- 53
2018-02-08 22:00:00 2.9 4 Norte 9 Nordeste 0 -- -- 53
2018-02-08 21:00:00 4.1 4 Norte 17 Norte 0 -- -- 50
2018-02-08 20:00:00 5.4 11 Norte 23 Norte 0 -- -- 44
2018-02-08 19:00:00 6.8 14 Norte 30 Norte 0 -- -- 41
2018-02-08 18:00:00 8.8 17 Norte 30 Norte 0 -- -- 37
2018-02-08 17:00:00 9.7 18 Norte 30 Norte 0 -- -- 37
2018-02-08 16:00:00 10 19 Norte 28 Norte 0 -- -- 36
2018-02-08 15:00:00 10 13 Norte 28 Norte 0 -- -- 36
2018-02-08 14:00:00 9.3 14 Norte 31 Nordeste 0 -- -- 39
2018-02-08 13:00:00 8.8 10 Nordeste 24 Norte 0 -- -- 42
2018-02-08 12:00:00 7.4 14 Norte 24 Nordeste 0 -- -- 47
2018-02-08 11:00:00 5.8 17 Norte 27 Norte 0 -- -- 48
2018-02-08 10:00:00 3.8 17 Norte 31 Norte 0 -- -- 53
2018-02-08 09:00:00 1.8 15 Norte 21 Norte 0 -- -- 56
2018-02-08 08:00:00 1.9 14 Nordeste 28 Nordeste 0 -- -- 55
2018-02-08 07:00:00 2.3 14 Norte 24 Nordeste 0 -- -- 53
2018-02-08 06:00:00 3.4 16 Nordeste 37 Norte 0 -- -- 49
2018-02-08 05:00:00 3.2 17 Norte 35 Norte 0 -- -- 52
2018-02-08 04:00:00 1.8 13 Norte 19 Norte 0 -- -- 60
2018-02-08 03:00:00 1.9 10 Norte 20 Norte 0 -- -- 61
2018-02-08 02:00:00 2.5 6 Nordeste 16 Nordeste 0 -- -- 58
2018-02-08 01:00:00 2 10 Norte 14 Norte 0 -- -- 59
2018-02-08 00:00:00 3.1 10 Norte 18 Norte 0 -- -- 54
2018-02-07 23:00:00 4.2 10 Nordeste 20 Nordeste 0 -- -- 51
2018-02-07 22:00:00 4.5 9 Nordeste 18 Nordeste 0 -- -- 49
2018-02-07 21:00:00 5.1 10 Nordeste 24 Norte 0 -- -- 47
2018-02-07 20:00:00 5.6 14 Nordeste 22 Norte 0 -- -- 45
2018-02-07 19:00:00 6.1 15 Norte 37 Norte 0 -- -- 43
2018-02-07 18:00:00 8 18 Nordeste 30 Nordeste 0 -- -- 39
2018-02-07 17:00:00 8.1 13 Nordeste 28 Nordeste 0 -- -- 39
2018-02-07 16:00:00 8.9 10 Nordeste 28 Este 0 -- -- 37
2018-02-07 15:00:00 9.8 12 Este 36 Nordeste 0 -- -- 38
2018-02-07 14:00:00 8.3 15 Nordeste 35 Nordeste 0 -- -- 41
2018-02-07 13:00:00 7.9 18 Nordeste 31 Nordeste 0 -- -- 47
2018-02-07 12:00:00 6.4 16 Nordeste 27 Este 0 -- -- 54
2018-02-07 11:00:00 6.2 19 Nordeste 33 Nordeste 0 -- -- 60
2018-02-07 10:00:00 4.5 12 Nordeste 23 Norte 0 -- -- 64
2018-02-07 09:00:00 2.3 9 Nordeste 15 Nordeste 0 -- -- 73
2018-02-07 08:00:00 0.8 8 Nordeste 12 Nordeste 0 -- -- 72
2018-02-07 07:00:00 0 8 Nordeste 12 Norte 0 -- -- 69
2018-02-07 06:00:00 0.1 7 Nordeste 13 Norte 0 -- -- 69
2018-02-07 05:00:00 0.3 9 Norte 12 Norte 0 -- -- 67
2018-02-07 04:00:00 0.2 2 Norte 6 Norte 0 -- -- 67
2018-02-07 03:00:00 1.5 0 Calma 23 Norte 0 -- -- 61
2018-02-07 02:00:00 2.5 18 Norte 24 Norte 0 -- -- 57
2018-02-07 01:00:00 1.4 14 Norte 20 Noroeste 0 -- -- 62
2018-02-07 00:00:00 1.8 11 Norte 17 Norte 0 -- -- 58
2018-02-06 23:00:00 2.9 8 Norte 15 Norte 0 -- -- 53
2018-02-06 22:00:00 3.4 11 Norte 20 Norte 0 -- -- 53
2018-02-06 21:00:00 4.2 14 Norte 20 Norte 0 -- -- 51
2018-02-06 20:00:00 5.8 14 Norte 20 Norte 0 -- -- 50
2018-02-06 19:00:00 6.9 15 Noroeste 32 Noroeste 0 -- -- 48
2018-02-06 18:00:00 8.5 22 Norte 31 Noroeste 0 -- -- 44
2018-02-06 17:00:00 9.1 19 Noroeste 26 Norte 0 -- -- 45
2018-02-06 16:00:00 10.2 12 Norte 24 Noroeste 0 -- -- 41
2018-02-06 15:00:00 9.4 10 Noroeste 29 Norte 0 -- -- 47
2018-02-06 14:00:00 9.4 15 Norte 32 Norte 0 -- -- 50
2018-02-06 13:00:00 8.6 21 Norte 38 Norte 0 -- -- 52
2018-02-06 12:00:00 7.7 22 Norte 31 Norte 0 -- -- 56
2018-02-06 11:00:00 5.9 15 Norte 24 Norte 0 -- -- 64
2018-02-06 10:00:00 4.3 15 Norte 25 Norte 0 -- -- 69
2018-02-06 09:00:00 2.1 17 Norte 27 Norte 0 -- -- 77
2018-02-06 08:00:00 2.1 14 Norte 27 Nordeste 0 -- -- 75
2018-02-06 07:00:00 0.7 13 Norte 18 Norte 0 -- -- 81
2018-02-06 06:00:00 1.7 15 Norte 19 Norte 0 -- -- 77
2018-02-06 05:00:00 1.3 16 Norte 21 Norte 0 -- -- 77
2018-02-06 04:00:00 2.2 15 Norte 24 Norte 0 -- -- 73
2018-02-06 03:00:00 2.9 21 Norte 38 Norte 0 -- -- 69
2018-02-06 02:00:00 3.7 26 Norte 34 Norte 0 -- -- 66
2018-02-06 01:00:00 3.3 17 Norte 26 Norte 0 -- -- 69
2018-02-06 00:00:00 2.8 15 Norte 22 Norte 0 -- -- 72
2018-02-05 23:00:00 3.2 11 Norte 19 Norte 0 -- -- 73
2018-02-05 22:00:00 4.7 8 Noroeste 13 Noroeste 0 -- -- 69
2018-02-05 21:00:00 4.6 5 Norte 18 Norte 0 -- -- 72
2018-02-05 20:00:00 6 9 Norte 18 Noroeste 0 -- -- 66
2018-02-05 19:00:00 7.2 14 Norte 32 Noroeste 0 -- -- 61
2018-02-05 18:00:00 8.1 19 Norte 33 Noroeste 0 -- -- 50
2018-02-05 17:00:00 9 21 Norte 32 Noroeste 0 -- -- 51
2018-02-05 16:00:00 9.6 17 Norte 30 Norte 0 -- -- 51
2018-02-05 15:00:00 10.1 12 Noroeste 20 Noroeste 0 -- -- 51
2018-02-05 14:00:00 8.2 3 Norte 18 Sur 0 -- -- 54
2018-02-05 13:00:00 9.3 6 Sur 14 Sur 0 -- -- 52
2018-02-05 12:00:00 7.5 5 Norte 13 Noroeste 0 -- -- 59
2018-02-05 11:00:00 6.2 6 Norte 12 Norte 0 -- -- 62
2018-02-05 10:00:00 4 3 Norte 11 Nordeste 0 -- -- 70
2018-02-05 09:00:00 0.6 5 Nordeste 14 Norte 0 -- -- 83
2018-02-05 08:00:00 1.3 12 Norte 20 Norte 0 -- -- 79
2018-02-05 07:00:00 1.1 12 Norte 17 Noroeste 0 -- -- 80
2018-02-05 06:00:00 1.3 6 Norte 9 Norte 0 -- -- 77
2018-02-05 05:00:00 2.5 7 Norte 13 Norte 0 -- -- 75
2018-02-05 04:00:00 1.4 11 Norte 17 Norte 0 -- -- 80
2018-02-05 03:00:00 1.2 4 Norte 6 Noroeste 0 -- -- 79
2018-02-05 02:00:00 1 5 Norte 12 Norte 0 -- -- 79
2018-02-05 01:00:00 2 11 Norte 17 Norte 0 -- -- 75
2018-02-05 00:00:00 1.9 12 Norte 14 Norte 0 -- -- 75
2018-02-04 23:00:00 3.4 9 Norte 14 Norte 0 -- -- 68
2018-02-04 22:00:00 4.2 10 Norte 21 Noroeste 0 -- -- 65
2018-02-04 21:00:00 4.8 11 Norte 15 Noroeste 0 -- -- 61
2018-02-04 20:00:00 5.8 10 Noroeste 17 Noroeste 0 -- -- 58
2018-02-04 19:00:00 6.7 4 Noroeste 18 Noroeste 0 -- -- 60
2018-02-04 18:00:00 7.4 10 Norte 41 Norte 0 -- -- 56
2018-02-04 17:00:00 8.2 20 Noroeste 29 Noroeste 0 -- -- 52
2018-02-04 16:00:00 9.1 18 Noroeste 28 Norte 0 -- -- 54
2018-02-04 15:00:00 9 18 Noroeste 30 Noroeste 0 -- -- 55
2018-02-04 14:00:00 8.4 18 Norte 28 Noroeste 0 -- -- 61
2018-02-04 13:00:00 7.7 17 Norte 29 Noroeste 0 -- -- 68
2018-02-04 12:00:00 7.8 15 Noroeste 31 Noroeste 0 -- -- 71
2018-02-04 11:00:00 6.3 18 Norte 30 Norte 0 -- -- 81
2018-02-04 10:00:00 6 19 Noroeste 32 Noroeste 0 -- -- 84
2018-02-04 09:00:00 5.5 21 Noroeste 31 Norte 0 -- -- 85
2018-02-04 08:00:00 5.4 18 Noroeste 30 Norte 0 -- -- 85
2018-02-04 07:00:00 5.8 17 Noroeste 29 Noroeste 0 -- -- 86
2018-02-04 06:00:00 6.1 16 Noroeste 27 Noroeste 0 -- -- 87
2018-02-04 05:00:00 6.4 15 Noroeste 29 Noroeste 0 -- -- 87
2018-02-04 04:00:00 6.1 13 Noroeste 25 Noroeste 0 -- -- 94
2018-02-04 03:00:00 6.6 6 Noroeste 21 Noroeste 0 -- -- 90
2018-02-04 02:00:00 6.9 14 Noroeste 22 Noroeste 0 -- -- 89
2018-02-04 01:00:00 6.9 13 Noroeste 24 Noroeste 0 -- -- 78
2018-02-04 00:00:00 6.5 8 Noroeste 26 Noroeste 0 -- -- 74
2018-02-03 23:00:00 6.3 7 Noroeste 12 Oeste 0 -- -- 64
2018-02-03 22:00:00 6.5 5 Noroeste 17 Noroeste 0 -- -- 59
2018-02-03 21:00:00 6.1 10 Norte 14 Noroeste 0 -- -- 60
2018-02-03 20:00:00 7.5 10 Noroeste 22 Noroeste 0 -- -- 54
2018-02-03 19:00:00 8.8 17 Noroeste 25 Noroeste 0 -- -- 49
2018-02-03 18:00:00 10.8 13 Noroeste 21 Norte 0 -- -- 40
2018-02-03 17:00:00 12.5 5 Oeste 19 Noroeste 0 -- -- 33
2018-02-03 16:00:00 11.9 12 Noroeste 22 Noroeste 0 -- -- 33
2018-02-03 15:00:00 11.9 18 Norte 31 Norte 0 -- -- 31
2018-02-03 14:00:00 11.6 10 Noroeste 22 Noroeste 0 -- -- 39
2018-02-03 13:00:00 10.5 8 Norte 17 Norte 0 -- -- 45
2018-02-03 12:00:00 9.4 6 Norte 12 Norte 0 -- -- 43
2018-02-03 11:00:00 7.5 9 Norte 14 Norte 0 -- -- 51
2018-02-03 10:00:00 5.2 2 Norte 5 Norte 0 -- -- 58
2018-02-03 09:00:00 2.3 4 Norte 6 Norte 0 -- -- 64
2018-02-03 08:00:00 1.9 3 Noroeste 5 Oeste 0 -- -- 64
2018-02-03 07:00:00 2.6 2 Nordeste 5 Nordeste 0 -- -- 61
2018-02-03 06:00:00 2.5 4 Norte 10 Norte 0 -- -- 64
2018-02-03 05:00:00 2.1 7 Norte 13 Norte 0 -- -- 64
2018-02-03 04:00:00 4.6 13 Norte 17 Norte 0 -- -- 54
2018-02-03 03:00:00 4.3 7 Nordeste 17 Nordeste 0 -- -- 57
2018-02-03 02:00:00 4.7 14 Nordeste 19 Norte 0 -- -- 53
2018-02-03 01:00:00 4.5 8 Nordeste 14 Nordeste 0 -- -- 55
2018-02-03 00:00:00 4.7 2 Sudeste 9 Sudeste 0 -- -- 54
2018-02-02 23:00:00 5 8 Norte 24 Norte 0 -- -- 54
2018-02-02 22:00:00 5.5 14 Norte 23 Norte 0 -- -- 53
2018-02-02 21:00:00 4.1 12 Norte 19 Norte 0 -- -- 59
2018-02-02 20:00:00 6.1 9 Noroeste 17 Noroeste 0 -- -- 52
2018-02-02 19:00:00 7.6 10 Norte 33 Norte 0 -- -- 46
2018-02-02 18:00:00 9.3 22 Norte 32 Norte 0 -- -- 43
2018-02-02 17:00:00 9.8 13 Norte 24 Norte 0 -- -- 43
2018-02-02 16:00:00 10.5 11 Norte 27 Norte 0 -- -- 43
2018-02-02 15:00:00 10.3 12 Norte 25 Norte 0 -- -- 46
2018-02-02 14:00:00 9.9 14 Norte 27 Nordeste 0 -- -- 46
2018-02-02 13:00:00 8.6 15 Norte 31 Norte 0 -- -- 50
2018-02-02 12:00:00 7.4 19 Norte 29 Norte 0 -- -- 55
2018-02-02 11:00:00 6.1 20 Norte 34 Norte 0 -- -- 58
2018-02-02 10:00:00 4.7 14 Norte 21 Nordeste 0 -- -- 64
2018-02-02 09:00:00 2.5 12 Norte 34 Norte 0 -- -- 71
2018-02-02 08:00:00 2.9 19 Norte 37 Norte 0 -- -- 70
2018-02-02 07:00:00 2.8 17 Norte 31 Norte 0 -- -- 72
2018-02-02 06:00:00 3.3 19 Norte 33 Norte 0 -- -- 72
2018-02-02 05:00:00 3.4 23 Norte 36 Norte 0 -- -- 73
2018-02-02 04:00:00 3.7 18 Norte 27 Noroeste 0 -- -- 75
2018-02-02 03:00:00 4.2 21 Norte 28 Noroeste 0 -- -- 78
2018-02-02 02:00:00 5 22 Norte 31 Norte 0 -- -- 75
2018-02-02 01:00:00 5.8 25 Norte 44 Norte 0 -- -- 73
2018-02-02 00:00:00 6.9 32 Norte 49 Norte 0 -- -- 68
2018-02-01 23:00:00 7.2 27 Norte 46 Norte 0 -- -- 67
2018-02-01 22:00:00 7.8 20 Noroeste 35 Noroeste 0 -- -- 66
2018-02-01 21:00:00 8.4 13 Noroeste 37 Noroeste 0 -- -- 65
2018-02-01 20:00:00 9.3 17 Noroeste 31 Norte 0 -- -- 63
2018-02-01 19:00:00 10.2 15 Noroeste 30 Noroeste 0 -- -- 66
2018-02-01 18:00:00 11 13 Oeste 27 Noroeste 0 -- -- 71
2018-02-01 17:00:00 11.8 17 Noroeste 38 Noroeste 0 -- -- 64
2018-02-01 16:00:00 11.9 18 Noroeste 37 Noroeste 0 -- -- 65
2018-02-01 15:00:00 11.4 15 Noroeste 32 Noroeste 0 -- -- 67
2018-02-01 14:00:00 11.3 13 Noroeste 24 Oeste 0 -- -- 69
2018-02-01 13:00:00 10.6 9 Oeste 21 Noroeste 0 -- -- 74
2018-02-01 12:00:00 7.5 9 Noroeste 19 Oeste 0 -- -- 86
2018-02-01 11:00:00 6.6 7 Noroeste 12 Noroeste 0 -- -- 89
2018-02-01 10:00:00 6.4 5 Noroeste 10 Noroeste 0 -- -- 86
2018-02-01 09:00:00 6.8 4 Noroeste 6 Oeste 0 -- -- 86
2018-02-01 08:00:00 7.6 3 Noroeste 8 Noroeste 0 -- -- 83
2018-02-01 07:00:00 7 3 Norte 9 Norte 0 -- -- 89
2018-02-01 06:00:00 7.7 4 Norte 7 Noroeste 0 -- -- 84
2018-02-01 05:00:00 8.5 4 Oeste 14 Oeste 0 -- -- 80
2018-02-01 04:00:00 8.6 4 Oeste 9 Oeste 0 -- -- 85
2018-02-01 03:00:00 8.7 4 Oeste 9 Oeste 0 -- -- 87
2018-02-01 02:00:00 8.6 0 Calma 9 Oeste 0 -- -- 90
2018-02-01 01:00:00 8.6 5 Sur 14 Sur 0 -- -- 83
2018-02-01 00:00:00 9.4 3 Oeste 9 Sudoeste 0 -- -- 71
2018-01-31 23:00:00 9.7 6 Sur 12 Sudeste 0 -- -- 63
2018-01-31 22:00:00 11.1 5 Sur 10 Sur 0 -- -- 61
2018-01-31 21:00:00 11.4 4 Sur 10 Nordeste 0 -- -- 59
2018-01-31 20:00:00 12.2 9 Nordeste 13 Norte 0 -- -- 54
2018-01-31 19:00:00 13.7 3 Norte 9 Nordeste 0 -- -- 52
2018-01-31 18:00:00 16.3 2 Nordeste 13 Nordeste 0 -- -- 46
2018-01-31 17:00:00 17.9 4 Este 16 Norte 0 -- -- 41
2018-01-31 16:00:00 17.5 8 Nordeste 20 Nordeste 0 -- -- 45
2018-01-31 15:00:00 16.6 7 Nordeste 18 Este 0 -- -- 43
2018-01-31 14:00:00 15.7 8 Nordeste 14 Norte 0 -- -- 55
2018-01-31 13:00:00 14.5 7 Nordeste 19 Este 0 -- -- 57
2018-01-31 12:00:00 13.5 14 Nordeste 22 Norte 0 -- -- 58
2018-01-31 11:00:00 13.1 7 Este 16 Este 0 -- -- 58
2018-01-31 10:00:00 10.8 7 Nordeste 12 Nordeste 0 -- -- 64
2018-01-31 09:00:00 10.6 8 Este 20 Este 0 -- -- 62
2018-01-31 08:00:00 11.7 9 Este 22 Nordeste 0 -- -- 53
2018-01-31 07:00:00 11.3 10 Este 23 Nordeste 0 -- -- 59
2018-01-31 06:00:00 11.7 13 Este 26 Este 0 -- -- 59
2018-01-31 05:00:00 11.3 12 Nordeste 22 Este 0 -- -- 63
2018-01-31 04:00:00 10.6 9 Este 16 Este 0 -- -- 67
2018-01-31 03:00:00 10.8 9 Este 16 Este 0 -- -- 65
2018-01-31 02:00:00 11.2 8 Este 19 Este 0 -- -- 62
2018-01-31 01:00:00 11.2 7 Este 21 Este 0 -- -- 62
2018-01-31 00:00:00 11.5 9 Este 21 Este 0 -- -- 58
2018-01-30 23:00:00 11.6 10 Este 24 Sudeste 0 -- -- 56
2018-01-30 22:00:00 11.7 8 Este 21 Este 0 -- -- 54
2018-01-30 21:00:00 12 10 Este 20 Este 0 -- -- 53
2018-01-30 20:00:00 12.3 8 Este 22 Este 0 -- -- 52
2018-01-30 19:00:00 12.7 7 Este 24 Este 0 -- -- 51
2018-01-30 18:00:00 13.8 10 Sudeste 31 Este 0 -- -- 46
2018-01-30 17:00:00 14.9 12 Este 28 Este 0 -- -- 45
2018-01-30 16:00:00 15.3 12 Nordeste 32 Este 0 -- -- 46
2018-01-30 15:00:00 15.8 12 Este 31 Nordeste 0 -- -- 43
2018-01-30 14:00:00 15 14 Nordeste 27 Este 0 -- -- 46
2018-01-30 13:00:00 14.2 12 Este 33 Nordeste 0 -- -- 48
2018-01-30 12:00:00 12.4 16 Este 33 Nordeste 0 -- -- 54
2018-01-30 11:00:00 12.6 8 Este 21 Este 0 -- -- 56
2018-01-30 10:00:00 11.7 8 Este 19 Sudeste 0 -- -- 55
2018-01-30 09:00:00 11.4 9 Este 24 Este 0 -- -- 53
2018-01-30 08:00:00 11.1 13 Nordeste 24 Este 0 -- -- 55
2018-01-30 07:00:00 10.5 10 Nordeste 22 Este 0 -- -- 60
2018-01-30 06:00:00 9.9 7 Nordeste 24 Este 0 -- -- 63
2018-01-30 05:00:00 9.8 13 Nordeste 24 Nordeste 0 -- -- 64
2018-01-30 04:00:00 9.8 14 Nordeste 27 Nordeste 0 -- -- 64
2018-01-30 03:00:00 9.9 9 Este 22 Este 0 -- -- 64
2018-01-30 02:00:00 9.9 7 Este 20 Este 0 -- -- 63
2018-01-30 01:00:00 9.3 6 Este 14 Sudeste 0 -- -- 66
2018-01-30 00:00:00 9.7 7 Nordeste 14 Sudeste 0 -- -- 65
2018-01-29 23:00:00 11.5 5 Sudeste 20 Sudeste 0 -- -- 58
2018-01-29 22:00:00 12.7 7 Este 24 Este 0 -- -- 54
2018-01-29 21:00:00 12.8 9 Este 30 Este 0 -- -- 53
2018-01-29 20:00:00 12.5 13 Nordeste 23 Nordeste 0 -- -- 54
2018-01-29 19:00:00 12.5 8 Este 18 Este 0 -- -- 57
2018-01-29 18:00:00 13.4 8 Este 20 Este 0 -- -- 56
2018-01-29 17:00:00 15.6 9 Sudeste 20 Sudeste 0 -- -- 51
2018-01-29 16:00:00 16.2 12 Nordeste 24 Nordeste 0 -- -- 45
2018-01-29 15:00:00 15.9 11 Este 27 Este 0 -- -- 44
2018-01-29 14:00:00 15.8 13 Este 33 Este 0 -- -- 43
2018-01-29 13:00:00 14.9 18 Nordeste 42 Nordeste 0 -- -- 46
2018-01-29 12:00:00 14.1 14 Este 40 Nordeste 0 -- -- 48
2018-01-29 11:00:00 12.1 19 Nordeste 44 Nordeste 0 -- -- 53
2018-01-29 10:00:00 11.2 19 Nordeste 39 Nordeste 0 -- -- 56
2018-01-29 09:00:00 9.9 13 Nordeste 32 Nordeste 0 -- -- 60
2018-01-29 08:00:00 9.8 18 Nordeste 32 Nordeste 0 -- -- 60
2018-01-29 07:00:00 10.1 14 Nordeste 35 Nordeste 0 -- -- 58
2018-01-29 06:00:00 10 15 Nordeste 36 Este 0 -- -- 58
2018-01-29 05:00:00 9.6 17 Nordeste 33 Nordeste 0 -- -- 59
2018-01-29 04:00:00 9.6 16 Nordeste 38 Nordeste 0 -- -- 57
2018-01-29 03:00:00 9.4 16 Nordeste 39 Nordeste 0 -- -- 56
2018-01-29 02:00:00 8.6 12 Nordeste 30 Nordeste 0 -- -- 53
2018-01-29 01:00:00 8.9 13 Nordeste 31 Nordeste 0 -- -- 51
2018-01-29 00:00:00 8.5 12 Nordeste 24 Nordeste 0 -- -- 54
2018-01-28 23:00:00 8 8 Este 18 Este 0 -- -- 56
2018-01-28 22:00:00 8.3 6 Este 22 Este 0 -- -- 62
2018-01-28 21:00:00 8.9 8 Este 25 Sudeste 0 -- -- 63
2018-01-28 20:00:00 10.8 13 Sudeste 37 Nordeste 0 -- -- 54
2018-01-28 19:00:00 11.8 10 Este 32 Este 0 -- -- 47
2018-01-28 18:00:00 12.7 12 Este 37 Este 0 -- -- 46
2018-01-28 17:00:00 12.6 18 Este 39 Este 0 -- -- 44
2018-01-28 16:00:00 13.5 19 Este 43 Este 0 -- -- 43
2018-01-28 15:00:00 12.7 17 Este 44 Este 0 -- -- 52
2018-01-28 14:00:00 12 24 Nordeste 48 Este 0 -- -- 55
2018-01-28 13:00:00 11.9 27 Nordeste 52 Este 0 -- -- 54
2018-01-28 12:00:00 11.2 25 Nordeste 51 Nordeste 0 -- -- 54
2018-01-28 11:00:00 10.5 24 Nordeste 51 Nordeste 0 -- -- 54
2018-01-28 10:00:00 9.4 27 Nordeste 47 Nordeste 0 -- -- 55
2018-01-28 09:00:00 8.4 22 Nordeste 41 Norte 0 -- -- 57
2018-01-28 08:00:00 6.1 16 Norte 38 Norte 0 -- -- 59
2018-01-28 07:00:00 5.4 16 Norte 30 Norte 0 -- -- 61
2018-01-28 06:00:00 5.5 23 Norte 33 Norte 0 -- -- 60
2018-01-28 05:00:00 5.7 15 Norte 26 Nordeste 0 -- -- 58
2018-01-28 04:00:00 7 17 Nordeste 33 Nordeste 0 -- -- 53
2018-01-28 03:00:00 7 12 Nordeste 26 Nordeste 0 -- -- 54
2018-01-28 02:00:00 7.5 10 Nordeste 24 Nordeste 0 -- -- 53
2018-01-28 01:00:00 7.5 10 Nordeste 23 Norte 0 -- -- 53
2018-01-28 00:00:00 7.8 13 Nordeste 21 Norte 0 -- -- 52
2018-01-27 23:00:00 7.3 14 Nordeste 21 Nordeste 0 -- -- 53
2018-01-27 22:00:00 7.1 11 Norte 18 Norte 0 -- -- 54
2018-01-27 21:00:00 7.1 12 Norte 19 Norte 0 -- -- 54
2018-01-27 20:00:00 7.8 14 Norte 23 Norte 0 -- -- 52
2018-01-27 19:00:00 8.9 16 Norte 28 Norte 0 -- -- 48
2018-01-27 18:00:00 10.5 24 Norte 32 Norte 0 -- -- 43
2018-01-27 17:00:00 11.6 18 Nordeste 35 Norte 0 -- -- 42
2018-01-27 16:00:00 11.9 27 Norte 40 Norte 0 -- -- 38
2018-01-27 15:00:00 12 29 Norte 40 Norte 0 -- -- 39
2018-01-27 14:00:00 11.9 20 Nordeste 34 Norte 0 -- -- 38
2018-01-27 13:00:00 11.1 21 Norte 29 Norte 0 -- -- 46
2018-01-27 12:00:00 9.2 7 Norte 19 Norte 0 -- -- 55
2018-01-27 11:00:00 7.6 12 Norte 22 Norte 0 -- -- 62
2018-01-27 10:00:00 5.3 16 Norte 31 Norte 0 -- -- 69
2018-01-27 09:00:00 4.9 17 Norte 30 Norte 0 -- -- 69
2018-01-27 08:00:00 5.2 18 Norte 27 Norte 0 -- -- 67
2018-01-27 07:00:00 4.9 16 Norte 33 Norte 0 -- -- 71
2018-01-27 06:00:00 5.3 20 Norte 32 Norte 0 -- -- 71
2018-01-27 05:00:00 5.9 25 Norte 36 Norte 0 -- -- 69
2018-01-27 04:00:00 5.8 27 Norte 39 Norte 0 -- -- 70
2018-01-27 03:00:00 4.9 19 Norte 28 Norte 0 -- -- 74
2018-01-27 02:00:00 6.2 19 Norte 27 Norte 0 -- -- 68
2018-01-27 01:00:00 5.8 6 Noroeste 19 Noroeste 0 -- -- 68
2018-01-27 00:00:00 6 10 Noroeste 24 Noroeste 0 -- -- 68
2018-01-26 23:00:00 6.7 14 Noroeste 23 Norte 0 -- -- 64
2018-01-26 22:00:00 7.1 7 Noroeste 19 Noroeste 0 -- -- 60
2018-01-26 21:00:00 6.3 8 Noroeste 17 Norte 0 -- -- 66
2018-01-26 20:00:00 7.6 10 Noroeste 19 Norte 0 -- -- 64
2018-01-26 19:00:00 8.5 10 Norte 38 Noroeste 0 -- -- 62
2018-01-26 18:00:00 10.2 24 Norte 46 Norte 0 -- -- 51
2018-01-26 17:00:00 11.1 24 Norte 39 Norte 0 -- -- 51
2018-01-26 16:00:00 11.3 18 Noroeste 31 Noroeste 0 -- -- 52
2018-01-26 15:00:00 10.7 21 Norte 31 Noroeste 0 -- -- 58
2018-01-26 14:00:00 9.5 22 Noroeste 36 Norte 0 -- -- 66
2018-01-26 13:00:00 9.2 22 Norte 36 Norte 0 -- -- 69
2018-01-26 12:00:00 8.1 28 Norte 47 Noroeste 0 -- -- 70
2018-01-26 11:00:00 6.8 31 Norte 45 Norte 0 -- -- 76
2018-01-26 10:00:00 5.7 28 Norte 40 Norte 0 -- -- 80
2018-01-26 09:00:00 4 20 Norte 30 Norte 0 -- -- 84
2018-01-26 08:00:00 4 19 Norte 36 Norte 0 -- -- 83
2018-01-26 07:00:00 3.8 25 Norte 42 Norte 0 -- -- 86
2018-01-26 06:00:00 4.3 27 Norte 44 Norte 0 -- -- 83
2018-01-26 05:00:00 4.4 28 Norte 38 Noroeste 0 -- -- 82
2018-01-26 04:00:00 4.3 20 Noroeste 32 Noroeste 0 -- -- 84
2018-01-26 03:00:00 4.4 13 Noroeste 25 Noroeste 0 -- -- 86
2018-01-26 02:00:00 4.7 12 Noroeste 27 Noroeste 0 -- -- 87
2018-01-26 01:00:00 5.2 22 Norte 39 Noroeste 0 -- -- 84
2018-01-26 00:00:00 5.5 26 Noroeste 41 Norte 0 -- -- 85
2018-01-25 23:00:00 6 31 Noroeste 45 Noroeste 0 -- -- 86
2018-01-25 22:00:00 6.3 19 Noroeste 31 Noroeste 0 -- -- 86
2018-01-25 21:00:00 7 19 Noroeste 35 Norte 0 -- -- 85
2018-01-25 20:00:00 8 16 Noroeste 32 Noroeste 0 -- -- 93
2018-01-25 19:00:00 8.4 8 Noroeste 18 Noroeste 0 -- -- 94
2018-01-25 18:00:00 8.7 6 Noroeste 24 Noroeste 0.6 -- -- 95
2018-01-25 17:00:00 9 6 Noroeste 17 Noroeste 0.4 -- -- 97
2018-01-25 16:00:00 8.8 8 Oeste 18 Oeste 0.4 -- -- 96
2018-01-25 15:00:00 8.9 9 Sudoeste 21 Sudoeste 0.2 -- -- 94
2018-01-25 14:00:00 9.9 8 Sudoeste 21 Sur 0 -- -- 88
2018-01-25 13:00:00 10.6 6 Sudoeste 12 Oeste 0 -- -- 75
2018-01-25 12:00:00 10.2 4 Sudoeste 10 Sudoeste 0 -- -- 82
2018-01-25 11:00:00 9.5 6 Sur 10 Sur 0 -- -- 92
2018-01-25 10:00:00 7 4 Sur 7 Sudeste 0 -- -- 97
2018-01-25 09:00:00 6.7 2 Noroeste 5 Noroeste 0 -- -- 96
2018-01-25 08:00:00 6.4 0 Calma 6 Oeste 0 -- -- 95
2018-01-25 07:00:00 7.5 3 Sudoeste 11 Sur 0 -- -- 92
2018-01-25 06:00:00 9.3 6 Sur 13 Sur 0 -- -- 91
2018-01-25 05:00:00 9.6 5 Sudoeste 9 Sudoeste 0 -- -- 92
2018-01-25 04:00:00 9.7 3 Oeste 8 Oeste 0 -- -- 93
2018-01-25 03:00:00 9.6 4 Oeste 8 Oeste 0 -- -- 96
2018-01-25 02:00:00 9.2 3 Noroeste 5 Noroeste 0 -- -- 96
2018-01-25 01:00:00 8.8 0 Calma 7 Noroeste 0 -- -- 96
2018-01-25 00:00:00 8.9 5 Noroeste 8 Norte 0 -- -- 96
2018-01-24 23:00:00 9.1 4 Norte 8 Noroeste 0 -- -- 95
2018-01-24 22:00:00 9.6 3 Noroeste 7 Noroeste 0 -- -- 93
2018-01-24 21:00:00 10.3 2 Noroeste 6 Oeste 0 -- -- 91
2018-01-24 20:00:00 11.1 4 Oeste 9 Sudoeste 0 -- -- 88
2018-01-24 19:00:00 12.5 2 Oeste 9 Oeste 0 -- -- 81
2018-01-24 18:00:00 14.3 5 Oeste 10 Oeste 0 -- -- 76
2018-01-24 17:00:00 16.5 6 Oeste 14 Oeste 0 -- -- 65
2018-01-24 16:00:00 17.3 6 Oeste 14 Noroeste 0 -- -- 64
2018-01-24 15:00:00 16.9 5 Sudoeste 14 Oeste 0 -- -- 64
2018-01-24 14:00:00 16.3 5 Sudoeste 15 Oeste 0 -- -- 64
2018-01-24 13:00:00 15.5 5 Sudoeste 12 Sudeste 0 -- -- 70
2018-01-24 12:00:00 14.1 5 Sur 13 Sudoeste 0 -- -- 73
2018-01-24 11:00:00 12.9 5 Sur 11 Sudeste 0 -- -- 77
2018-01-24 10:00:00 10.9 2 Sudeste 9 Sudeste 0 -- -- 85
2018-01-24 09:00:00 8.1 0 Calma 7 Sudeste 0 -- -- 88
2018-01-24 08:00:00 8 2 Sudeste 7 Sudeste 0 -- -- 88
2018-01-24 07:00:00 8.9 2 Sudeste 6 Este 0 -- -- 85
2018-01-24 06:00:00 10.6 3 Este 9 Este 0 -- -- 80
2018-01-24 05:00:00 10.6 5 Este 8 Sudeste 0 -- -- 81
2018-01-24 04:00:00 8.9 0 Calma 5 Sudeste 0 -- -- 87
2018-01-24 03:00:00 9.5 0 Calma 5 Sudeste 0 -- -- 89
2018-01-24 02:00:00 10.3 0 Calma 3 Sudeste 0 -- -- 86
2018-01-24 01:00:00 11.1 0 Calma 4 Nordeste 0 -- -- 84
2018-01-24 00:00:00 10.8 3 Nordeste 4 Norte 0 -- -- 86
2018-01-23 23:00:00 10.8 3 Nordeste 9 Nordeste 0 -- -- 84
2018-01-23 22:00:00 11 7 Este 8 Este 0 -- -- 85
2018-01-23 21:00:00 10.7 2 Nordeste 3 Nordeste 0 -- -- 82
2018-01-23 20:00:00 11.1 2 Norte 6 Noroeste 0 -- -- 82
2018-01-23 19:00:00 13.6 3 Noroeste 6 Oeste 0 -- -- 72
2018-01-23 18:00:00 17.2 4 Oeste 10 Oeste 0 -- -- 62
2018-01-23 17:00:00 18.6 6 Oeste 15 Oeste 0 -- -- 58
2018-01-23 16:00:00 19.5 6 Oeste 16 Sudoeste 0 -- -- 56
2018-01-23 15:00:00 19.4 6 Sudoeste 15 Sudoeste 0 -- -- 48
2018-01-23 14:00:00 18.2 5 Sudoeste 12 Sur 0 -- -- 50
2018-01-23 13:00:00 17.3 5 Sur 13 Sur 0 -- -- 56
2018-01-23 12:00:00 16.4 6 Sur 10 Sur 0 -- -- 55
2018-01-23 11:00:00 14.6 4 Sur 8 Sur 0 -- -- 61
2018-01-23 10:00:00 11.6 5 Sur 8 Sudeste 0 -- -- 75
2018-01-23 09:00:00 9.3 5 Sur 8 Sur 0 -- -- 89
2018-01-23 08:00:00 8.2 2 Sur 4 Sudoeste 0 -- -- 86
2018-01-23 07:00:00 8.4 0 Calma 4 Noroeste 0 -- -- 73
2018-01-23 06:00:00 9.1 0 Calma 4 Noroeste 0 -- -- 67
2018-01-23 05:00:00 10.7 3 Norte 4 Nordeste 0 -- -- 64
2018-01-23 04:00:00 8.7 0 Calma 3 Sudoeste 0 -- -- 70
2018-01-23 03:00:00 8.9 0 Calma 6 Sur 0 -- -- 70
2018-01-23 02:00:00 8.9 0 Calma 5 Este 0 -- -- 69
2018-01-23 01:00:00 8.8 0 Calma 5 Norte 0 -- -- 73
2018-01-23 00:00:00 8.3 0 Calma 9 Noroeste 0 -- -- 79
2018-01-22 23:00:00 9.5 5 Noroeste 8 Noroeste 0 -- -- 79
2018-01-22 22:00:00 10.5 0 Calma 16 Nordeste 0 -- -- 72
2018-01-22 21:00:00 12.5 13 Nordeste 23 Norte 0 -- -- 72
2018-01-22 20:00:00 11.2 11 Norte 14 Norte 0 -- -- 86
2018-01-22 19:00:00 12.3 5 Norte 12 Oeste 0 -- -- 82
2018-01-22 18:00:00 16 5 Oeste 13 Noroeste 0 -- -- 70
2018-01-22 17:00:00 17.3 6 Noroeste 16 Noroeste 0 -- -- 63
2018-01-22 16:00:00 18 7 Oeste 13 Oeste 0 -- -- 61
2018-01-22 15:00:00 17.9 8 Oeste 14 Oeste 0 -- -- 59
2018-01-22 14:00:00 17 5 Noroeste 10 Oeste 0 -- -- 61
2018-01-22 13:00:00 16.1 4 Noroeste 15 Oeste 0 -- -- 61
2018-01-22 12:00:00 15.2 4 Sudoeste 9 Sur 0 -- -- 66
2018-01-22 11:00:00 13.7 4 Sur 7 Sur 0 -- -- 68
2018-01-22 10:00:00 10.3 0 Calma 6 Sudeste 0 -- -- 79
2018-01-22 09:00:00 8.2 0 Calma 5 Sudeste 0 -- -- 82
2018-01-22 08:00:00 10.7 5 Sudeste 6 Este 0 -- -- 73
2018-01-22 07:00:00 9.2 0 Calma 4 Sur 0 -- -- 80
2018-01-22 06:00:00 10 3 Norte 6 Norte 0 -- -- 79
2018-01-22 05:00:00 9.7 4 Norte 8 Nordeste 0 -- -- 83
2018-01-22 04:00:00 9.3 6 Norte 9 Norte 0 -- -- 84
2018-01-22 03:00:00 9.2 7 Norte 9 Norte 0 -- -- 83
2018-01-22 02:00:00 9 6 Norte 9 Norte 0 -- -- 81
2018-01-22 01:00:00 9.4 2 Norte 6 Sudeste 0 -- -- 80
2018-01-22 00:00:00 10.5 4 Nordeste 9 Norte 0 -- -- 76